Time;durP1;ratioP1;P1;durP2;ratioP2;P2;SDS_P1;SDS_P2;PMS_P1;PMS_P2;Temp;Humidity;BMP_temperature;BMP_pressure;BME280_temperature;BME280_humidity;BME280_pressure;Samples;Min_cycle;Max_cycle;Signal;HPM_P1;HPM_P2
2023/12/08 00:01:31;;;;;;;;;;;;;;;;;;5004630;28;130698;-73
2023/12/08 00:03:57;;;;;;;;;;;;;;;;;;5006350;28;98211;-73
2023/12/08 00:06:23;;;;;;;;;;;;;;;;;;5007171;28;129518;-73
2023/12/08 00:08:50;;;;;;;;;;;;;;;;;;5009701;28;129397;-73
2023/12/08 00:11:16;;;;;;;;;;;;;;;;;;5007048;28;129054;-73
2023/12/08 00:13:44;;;;;;;;;;;;;;;;;;5005148;28;129243;-73
2023/12/08 00:16:10;;;;;;;;;;;;;;;;;;5006267;28;126742;-73
2023/12/08 00:18:37;;;;;;;;;;;;;;;;;;5007357;28;128914;-73
2023/12/08 00:21:03;;;;;;;;;;;;;;;;;;5006629;28;130218;-74
2023/12/08 00:23:30;;;;;;;;;;;;;;;;;;5006308;28;121469;-72
2023/12/08 00:25:56;;;;;;;;;;;;;;;;;;5007174;28;129799;-72
2023/12/08 00:28:23;;;;;;;;;;;;;;;;;;5006699;28;129632;-71
2023/12/08 00:30:51;;;;;;;;;;;;;;;;;;5016400;28;98242;-72
2023/12/08 00:33:17;;;;;;;;;;;;;;;;;;5027078;27;99698;-71
2023/12/08 00:35:44;;;;;;;;;;;;;;;;;;5018583;28;98177;-73
2023/12/08 00:38:11;;;;;;;;;;;;;;;;;;5003126;28;130092;-72
2023/12/08 00:40:37;;;;;;;;;;;;;;;;;;5007829;28;129524;-73
2023/12/08 00:43:03;;;;;;;;;;;;;;;;;;5005197;28;123732;-73
2023/12/08 00:45:30;;;;;;;;;;;;;;;;;;5005594;28;128440;-72
2023/12/08 00:47:56;;;;;;;;;;;;;;;;;;5012321;28;129385;-72
2023/12/08 00:50:22;;;;;;;;;;;;;;;;;;5023564;28;123123;-72
2023/12/08 00:52:49;;;;;;;;;;;;;;;;;;5010111;28;128963;-72
2023/12/08 00:55:15;;;;;;;;;;;;;;;;;;5006895;28;121591;-74
2023/12/08 00:57:41;;;;;;;;;;;;;;;;;;5006080;28;129046;-73
2023/12/08 01:00:08;;;;;;;;;;;;;;;;;;5006341;28;126855;-72
2023/12/08 01:02:34;;;;;;;;;;;;;;;;;;5005726;28;123247;-74
2023/12/08 01:05:00;;;;;;;;;;;;;;;;;;5012258;28;129305;-73
2023/12/08 01:07:27;;;;;;;;;;;;;;;;;;5026344;28;128224;-72
2023/12/08 01:09:54;;;;;;;;;;;;;;;;;;5027411;28;107995;-73
2023/12/08 01:12:20;;;;;;;;;;;;;;;;;;5022205;28;129449;-74
2023/12/08 01:14:47;;;;;;;;;;;;;;;;;;4994761;28;129294;-73
2023/12/08 01:17:13;;;;;;;;;;;;;;;;;;4987243;28;128885;-73
2023/12/08 01:19:39;;;;;;;;;;;;;;;;;;5017834;28;128261;-74
2023/12/08 01:22:06;;;;;;;;;;;;;;;;;;5008892;27;116662;-72
2023/12/08 01:24:32;;;;;;;;;;;;;;;;;;5005241;28;128907;-74
2023/12/08 01:26:58;;;;;;;;;;;;;;;;;;5000870;28;130070;-73
2023/12/08 01:29:25;;;;;;;;;;;;;;;;;;5005473;28;108362;-71
2023/12/08 01:31:51;;;;;;;;;;;;;;;;;;5006449;28;129165;-72
2023/12/08 01:34:17;;;;;;;;;;;;;;;;;;5003998;28;130528;-73
2023/12/08 01:36:44;;;;;;;;;;;;;;;;;;5009620;28;122808;-72
2023/12/08 01:39:11;;;;;;;;;;;;;;;;;;5002436;28;129793;-74
2023/12/08 01:41:38;;;;;;;;;;;;;;;;;;5003949;28;123039;-73
2023/12/08 01:44:04;;;;;;;;;;;;;;;;;;5003576;28;128321;-73
2023/12/08 01:46:30;;;;;;;;;;;;;;;;;;5008573;28;129150;-74
2023/12/08 01:48:57;;;;;;;;;;;;;;;;;;5009590;28;121660;-73
2023/12/08 01:51:23;;;;;;;;;;;;;;;;;;5005163;28;127615;-73
2023/12/08 01:53:50;;;;;;;;;;;;;;;;;;5007338;28;129991;-73
2023/12/08 01:56:16;;;;;;;;;;;;;;;;;;5017532;28;122968;-73
2023/12/08 01:58:42;;;;;;;;;;;;;;;;;;5024983;27;127912;-73
2023/12/08 02:01:09;;;;;;;;;;;;;;;;;;5007509;28;123774;-73
2023/12/08 02:03:35;;;;;;;;;;;;;;;;;;5008595;28;128998;-73
2023/12/08 02:06:02;;;;;;;;;;;;;;;;;;5009444;28;129168;-73
2023/12/08 02:08:28;;;;;;;;;;;;;;;;;;5006182;28;123125;-73
2023/12/08 02:10:54;;;;;;;;;;;;;;;;;;5009207;28;101458;-74
2023/12/08 02:13:21;;;;;;;;;;;;;;;;;;5008058;28;130151;-73
2023/12/08 02:15:47;;;;;;;;;;;;;;;;;;5006467;28;122842;-72
2023/12/08 02:18:13;;;;;;;;;;;;;;;;;;5008779;28;128796;-73
2023/12/08 02:20:40;;;;;;;;;;;;;;;;;;5007624;28;123030;-73
2023/12/08 02:23:06;;;;;;;;;;;;;;;;;;5003191;28;128970;-73
2023/12/08 02:25:33;;;;;;;;;;;;;;;;;;5007675;28;130399;-73
2023/12/08 02:27:59;;;;;;;;;;;;;;;;;;5007858;28;122012;-73
2023/12/08 02:30:25;;;;;;;;;;;;;;;;;;5017245;27;128838;-72
2023/12/08 02:32:52;;;;;;;;;;;;;;;;;;5007090;28;129420;-74
2023/12/08 02:35:18;;;;;;;;;;;;;;;;;;5007566;28;122309;-74
2023/12/08 02:37:45;;;;;;;;;;;;;;;;;;5008364;28;128934;-72
2023/12/08 02:40:11;;;;;;;;;;;;;;;;;;5009580;28;129415;-73
2023/12/08 02:42:37;;;;;;;;;;;;;;;;;;5006872;28;127622;-74
2023/12/08 02:45:04;;;;;;;;;;;;;;;;;;5008540;28;127909;-72
2023/12/08 02:47:30;;;;;;;;;;;;;;;;;;5008029;28;122595;-73
2023/12/08 02:49:57;;;;;;;;;;;;;;;;;;5007814;28;129355;-73
2023/12/08 02:52:23;;;;;;;;;;;;;;;;;;5007065;28;128490;-74
2023/12/08 02:54:49;;;;;;;;;;;;;;;;;;5007624;28;123041;-74
2023/12/08 02:57:16;;;;;;;;;;;;;;;;;;5006578;28;128840;-74
2023/12/08 02:59:42;;;;;;;;;;;;;;;;;;5008352;28;129476;-74
2023/12/08 03:02:08;;;;;;;;;;;;;;;;;;5011434;28;123074;-74
2023/12/08 03:04:35;;;;;;;;;;;;;;;;;;5004851;28;129471;-74
2023/12/08 03:07:01;;;;;;;;;;;;;;;;;;5009005;28;105847;-74
2023/12/08 03:09:30;;;;;;;;;;;;;;;;;;5008428;28;129385;-74
2023/12/08 03:11:56;;;;;;;;;;;;;;;;;;5005727;28;129802;-73
2023/12/08 03:14:22;;;;;;;;;;;;;;;;;;5005706;28;123284;-73
2023/12/08 03:16:49;;;;;;;;;;;;;;;;;;5008447;28;127801;-74
2023/12/08 03:19:16;;;;;;;;;;;;;;;;;;5004886;28;129112;-75
2023/12/08 03:21:42;;;;;;;;;;;;;;;;;;5007306;27;122580;-74
2023/12/08 03:24:08;;;;;;;;;;;;;;;;;;5010867;28;130241;-74
2023/12/08 03:26:35;;;;;;;;;;;;;;;;;;5006343;28;118534;-73
2023/12/08 03:29:01;;;;;;;;;;;;;;;;;;5007195;28;129014;-73
2023/12/08 03:31:28;;;;;;;;;;;;;;;;;;5006164;28;129463;-73
2023/12/08 03:33:54;;;;;;;;;;;;;;;;;;5007702;28;123988;-73
2023/12/08 03:36:20;;;;;;;;;;;;;;;;;;5006582;28;128860;-73
2023/12/08 03:38:47;;;;;;;;;;;;;;;;;;5019686;28;130343;-74
2023/12/08 03:41:13;;;;;;;;;;;;;;;;;;5007053;28;124580;-74
2023/12/08 03:43:39;;;;;;;;;;;;;;;;;;5002226;28;110738;-74
2023/12/08 03:46:06;;;;;;;;;;;;;;;;;;5008881;28;129956;-74
2023/12/08 03:48:32;;;;;;;;;;;;;;;;;;5006384;28;127749;-74
2023/12/08 03:50:58;;;;;;;;;;;;;;;;;;5007653;28;129426;-74
2023/12/08 03:53:25;;;;;;;;;;;;;;;;;;5005847;28;121815;-75
2023/12/08 03:55:51;;;;;;;;;;;;;;;;;;5006763;28;129114;-74
2023/12/08 03:58:17;;;;;;;;;;;;;;;;;;5006917;28;130242;-74
2023/12/08 04:00:44;;;;;;;;;;;;;;;;;;5006980;28;123752;-74
2023/12/08 04:03:10;;;;;;;;;;;;;;;;;;5007249;28;129181;-75
2023/12/08 04:05:36;;;;;;;;;;;;;;;;;;5007294;28;129751;-73
2023/12/08 04:08:04;;;;;;;;;;;;;;;;;;5011658;28;113084;-74
2023/12/08 04:10:31;;;;;;;;;;;;;;;;;;5007212;28;127691;-74
2023/12/08 04:12:57;;;;;;;;;;;;;;;;;;5008923;28;122177;-74
2023/12/08 04:15:23;;;;;;;;;;;;;;;;;;5006315;28;128962;-75
2023/12/08 04:17:49;;;;;;;;;;;;;;;;;;5006261;28;130111;-73
2023/12/08 04:20:16;;;;;;;;;;;;;;;;;;5006191;28;125556;-75
2023/12/08 04:22:43;;;;;;;;;;;;;;;;;;4997082;28;128560;-73
2023/12/08 04:25:09;;;;;;;;;;;;;;;;;;4990766;28;129520;-74
2023/12/08 04:27:35;;;;;;;;;;;;;;;;;;5020197;27;122287;-74
2023/12/08 04:30:01;;;;;;;;;;;;;;;;;;5006639;28;129406;-74
2023/12/08 04:32:28;;;;;;;;;;;;;;;;;;5005722;28;118419;-72
2023/12/08 04:34:56;;;;;;;;;;;;;;;;;;5007316;28;129702;-74
2023/12/08 04:37:23;;;;;;;;;;;;;;;;;;5003645;28;128044;-74
2023/12/08 04:39:49;;;;;;;;;;;;;;;;;;5004680;28;122984;-74
2023/12/08 04:42:16;;;;;;;;;;;;;;;;;;5003067;28;128974;-74
2023/12/08 04:44:42;;;;;;;;;;;;;;;;;;5004628;28;129676;-73
2023/12/08 04:47:08;;;;;;;;;;;;;;;;;;5005920;28;123445;-74
2023/12/08 04:49:38;;;;;;;;;;;;;;;;;;5007486;28;128670;-74
2023/12/08 04:52:07;;;;;;;;;;;;;;;;;;5006364;28;121184;-74
2023/12/08 04:54:33;;;;;;;;;;;;;;;;;;5006845;28;129554;-74
2023/12/08 04:56:59;;;;;;;;;;;;;;;;;;5006023;28;130425;-73
2023/12/08 04:59:26;;;;;;;;;;;;;;;;;;5006839;28;123275;-74
2023/12/08 05:01:52;;;;;;;;;;;;;;;;;;5005660;28;129200;-74
2023/12/08 05:04:18;;;;;;;;;;;;;;;;;;5006022;28;130138;-74
2023/12/08 05:06:45;;;;;;;;;;;;;;;;;;5005988;28;121495;-74
2023/12/08 05:09:11;;;;;;;;;;;;;;;;;;5006856;28;128599;-73
2023/12/08 05:11:37;;;;;;;;;;;;;;;;;;5006686;28;130165;-75
2023/12/08 05:14:04;;;;;;;;;;;;;;;;;;5004393;28;128472;-74
2023/12/08 05:16:30;;;;;;;;;;;;;;;;;;5005695;28;127878;-74
2023/12/08 05:18:56;;;;;;;;;;;;;;;;;;5005734;28;123875;-73
2023/12/08 05:21:24;;;;;;;;;;;;;;;;;;5027444;28;129768;-74
2023/12/08 05:23:50;;;;;;;;;;;;;;;;;;5018234;28;129378;-74
2023/12/08 05:26:16;;;;;;;;;;;;;;;;;;5008918;28;122967;-74
2023/12/08 05:28:43;;;;;;;;;;;;;;;;;;5005582;28;129727;-74
2023/12/08 05:31:09;;;;;;;;;;;;;;;;;;5008439;28;129488;-74
2023/12/08 05:33:35;;;;;;;;;;;;;;;;;;5011606;28;124626;-74
2023/12/08 05:36:02;;;;;;;;;;;;;;;;;;5009651;28;129763;-74
2023/12/08 05:38:31;;;;;;;;;;;;;;;;;;5007726;28;115926;-75
2023/12/08 05:40:57;;;;;;;;;;;;;;;;;;5006812;28;129073;-74
2023/12/08 05:43:23;;;;;;;;;;;;;;;;;;5008094;28;129533;-73
2023/12/08 05:45:49;;;;;;;;;;;;;;;;;;5006806;28;123752;-73
2023/12/08 05:48:16;;;;;;;;;;;;;;;;;;5007443;28;128993;-73
2023/12/08 05:50:45;;;;;;;;;;;;;;;;;;5004967;28;127917;-73
2023/12/08 05:53:13;;;;;;;;;;;;;;;;;;5006388;28;123243;-73
2023/12/08 05:55:39;;;;;;;;;;;;;;;;;;5009130;28;128960;-75
2023/12/08 05:58:06;;;;;;;;;;;;;;;;;;5006097;28;124096;-75
2023/12/08 06:00:33;;;;;;;;;;;;;;;;;;5006535;28;128923;-72
2023/12/08 06:02:59;;;;;;;;;;;;;;;;;;5004143;28;128303;-74
2023/12/08 06:05:26;;;;;;;;;;;;;;;;;;5009849;28;103282;-74
2023/12/08 06:07:52;;;;;;;;;;;;;;;;;;5008680;28;127736;-74
2023/12/08 06:10:18;;;;;;;;;;;;;;;;;;5009056;28;130029;-74
2023/12/08 06:12:45;;;;;;;;;;;;;;;;;;5008209;28;123101;-73
2023/12/08 06:15:11;;;;;;;;;;;;;;;;;;5007107;28;128639;-74
2023/12/08 06:17:38;;;;;;;;;;;;;;;;;;5011260;28;98234;-73
2023/12/08 06:20:04;;;;;;;;;;;;;;;;;;5006905;28;99650;-74
2023/12/08 06:22:31;;;;;;;;;;;;;;;;;;5004525;28;129470;-74
2023/12/08 06:24:57;;;;;;;;;;;;;;;;;;5000068;28;122919;-73
2023/12/08 06:27:23;;;;;;;;;;;;;;;;;;5008855;28;128602;-73
2023/12/08 06:29:50;;;;;;;;;;;;;;;;;;5006995;28;129587;-73
2023/12/08 06:32:20;;;;;;;;;;;;;;;;;;5007122;28;123277;-74
2023/12/08 06:34:46;;;;;;;;;;;;;;;;;;5008196;28;129414;-73
2023/12/08 06:37:13;;;;;;;;;;;;;;;;;;5012456;28;125227;-74
2023/12/08 06:39:39;;;;;;;;;;;;;;;;;;5009108;28;127544;-75
2023/12/08 06:42:06;;;;;;;;;;;;;;;;;;5006732;28;129327;-75
2023/12/08 06:44:32;;;;;;;;;;;;;;;;;;5006246;28;118123;-75
2023/12/08 06:46:58;;;;;;;;;;;;;;;;;;5006515;28;129118;-75
2023/12/08 06:49:25;;;;;;;;;;;;;;;;;;5007693;28;129644;-73
2023/12/08 06:51:51;;;;;;;;;;;;;;;;;;5008639;28;122391;-74
2023/12/08 06:54:17;;;;;;;;;;;;;;;;;;5005130;28;127593;-74
2023/12/08 06:56:44;;;;;;;;;;;;;;;;;;5007806;28;123446;-75
2023/12/08 06:59:11;;;;;;;;;;;;;;;;;;5011322;28;123192;-74
2023/12/08 07:01:37;;;;;;;;;;;;;;;;;;5008716;28;129396;-74
2023/12/08 07:04:03;;;;;;;;;;;;;;;;;;5006198;28;122460;-74
2023/12/08 07:06:30;;;;;;;;;;;;;;;;;;5002221;28;127599;-75
2023/12/08 07:08:56;;;;;;;;;;;;;;;;;;5006013;28;129382;-73
2023/12/08 07:11:22;;;;;;;;;;;;;;;;;;5007880;28;125554;-75
2023/12/08 07:13:49;;;;;;;;;;;;;;;;;;5009293;28;128946;-75
2023/12/08 07:16:15;;;;;;;;;;;;;;;;;;5009042;28;130003;-74
2023/12/08 07:18:42;;;;;;;;;;;;;;;;;;5012400;28;123481;-73
2023/12/08 07:21:08;;;;;;;;;;;;;;;;;;5008819;28;129740;-74
2023/12/08 07:23:35;;;;;;;;;;;;;;;;;;5007283;28;122564;-75
2023/12/08 07:26:01;;;;;;;;;;;;;;;;;;5009430;28;127874;-75
2023/12/08 07:28:27;;;;;;;;;;;;;;;;;;5006272;28;128291;-72
2023/12/08 07:30:54;;;;;;;;;;;;;;;;;;5009101;28;123102;-74
2023/12/08 07:33:21;;;;;;;;;;;;;;;;;;5008059;28;132118;-73
2023/12/08 07:35:47;;;;;;;;;;;;;;;;;;5005251;28;129411;-75
2023/12/08 07:38:14;;;;;;;;;;;;;;;;;;5006362;28;123148;-74
2023/12/08 07:40:40;;;;;;;;;;;;;;;;;;5007598;28;129853;-73
2023/12/08 07:43:06;;;;;;;;;;;;;;;;;;5010385;28;130153;-73
2023/12/08 07:45:33;;;;;;;;;;;;;;;;;;5007280;28;127605;-74
2023/12/08 07:47:59;;;;;;;;;;;;;;;;;;5004584;28;129956;-74
2023/12/08 07:50:26;;;;;;;;;;;;;;;;;;5006416;28;123232;-73
2023/12/08 07:52:53;;;;;;;;;;;;;;;;;;5006699;28;129448;-74
2023/12/08 07:55:20;;;;;;;;;;;;;;;;;;5006773;28;130714;-73
2023/12/08 07:57:46;;;;;;;;;;;;;;;;;;5005706;28;123387;-73
2023/12/08 08:00:12;;;;;;;;;;;;;;;;;;5000170;28;127613;-75
2023/12/08 08:02:39;;;;;;;;;;;;;;;;;;5004105;28;129414;-73
2023/12/08 08:05:05;;;;;;;;;;;;;;;;;;5003496;28;123885;-73
2023/12/08 08:07:31;;;;;;;;;;;;;;;;;;4997853;28;129392;-74
2023/12/08 08:09:58;;;;;;;;;;;;;;;;;;4993736;28;124015;-73
2023/12/08 08:12:25;;;;;;;;;;;;;;;;;;4990801;28;127871;-73
2023/12/08 08:14:51;;;;;;;;;;;;;;;;;;4991900;28;129669;-74
2023/12/08 08:17:17;;;;;;;;;;;;;;;;;;4990229;28;123290;-72
2023/12/08 08:19:44;;;;;;;;;;;;;;;;;;4992888;28;127880;-72
2023/12/08 08:22:10;;;;;;;;;;;;;;;;;;4991833;28;99755;-74
2023/12/08 08:24:54;;;;;;;;;;;;;;;;;;4996900;28;125320;-73
2023/12/08 08:27:21;;;;;;;;;;;;;;;;;;4990452;28;129579;-73
2023/12/08 08:29:48;;;;;;;;;;;;;;;;;;4996884;28;123101;-74
2023/12/08 08:32:17;;;;;;;;;;;;;;;;;;4999408;28;128005;-74
2023/12/08 08:34:43;;;;;;;;;;;;;;;;;;4994721;28;130254;-74
2023/12/08 08:37:09;;;;;;;;;;;;;;;;;;4998626;28;123029;-74
2023/12/08 08:39:36;;;;;;;;;;;;;;;;;;5006769;28;129218;-74
2023/12/08 08:42:02;;;;;;;;;;;;;;;;;;5005588;28;131152;-74
2023/12/08 08:44:28;;;;;;;;;;;;;;;;;;5007869;28;100530;-75
2023/12/08 08:46:55;;;;;;;;;;;;;;;;;;5008855;28;128927;-74
2023/12/08 08:49:21;;;;;;;;;;;;;;;;;;4998406;28;125505;-74
2023/12/08 08:51:48;;;;;;;;;;;;;;;;;;5000752;28;128995;-74
2023/12/08 08:54:14;;;;;;;;;;;;;;;;;;4995234;28;129838;-77
2023/12/08 08:56:41;;;;;;;;;;;;;;;;;;4997682;28;123427;-76
2023/12/08 08:59:07;;;;;;;;;;;;;;;;;;4986855;28;128787;-74
2023/12/08 09:01:33;;;;;;;;;;;;;;;;;;4992323;28;129599;-74
2023/12/08 09:04:00;;;;;;;;;;;;;;;;;;4993156;28;115133;-74
2023/12/08 09:06:26;;;;;;;;;;;;;;;;;;4992598;28;129065;-74
2023/12/08 09:08:53;;;;;;;;;;;;;;;;;;4997017;28;129894;-74
2023/12/08 09:11:19;;;;;;;;;;;;;;;;;;4998420;28;127343;-75
2023/12/08 09:13:46;;;;;;;;;;;;;;;;;;4995027;28;99363;-74
2023/12/08 09:16:12;;;;;;;;;;;;;;;;;;4998217;28;121662;-75
2023/12/08 09:18:38;;;;;;;;;;;;;;;;;;5005426;28;128915;-74
2023/12/08 09:21:05;;;;;;;;;;;;;;;;;;5003309;28;128734;-74
2023/12/08 09:23:31;;;;;;;;;;;;;;;;;;4994790;28;123257;-73
2023/12/08 09:25:59;;;;;;;;;;;;;;;;;;4995715;28;128949;-74
2023/12/08 09:28:25;;;;;;;;;;;;;;;;;;4997761;28;129129;-74
2023/12/08 09:30:51;;;;;;;;;;;;;;;;;;4997328;28;100611;-77
2023/12/08 09:33:18;;;;;;;;;;;;;;;;;;4993776;28;130492;-77
2023/12/08 09:35:46;;;;;;;;;;;;;;;;;;4995644;28;121415;-75
2023/12/08 09:38:13;;;;;;;;;;;;;;;;;;4996560;28;128535;-74
2023/12/08 09:40:46;;;;;;;;;;;;;;;;;;4992966;28;129588;-75
2023/12/08 09:43:12;;;;;;;;;;;;;;;;;;4991345;28;123010;-75
2023/12/08 09:45:38;;;;;;;;;;;;;;;;;;4993728;28;129800;-75
2023/12/08 09:48:06;;;;;;;;;;;;;;;;;;4991448;28;130582;-74
2023/12/08 09:50:32;;;;;;;;;;;;;;;;;;4996472;28;122854;-73
2023/12/08 09:52:58;;;;;;;;;;;;;;;;;;4999230;28;129107;-75
2023/12/08 09:55:25;;;;;;;;;;;;;;;;;;4998184;28;121890;-74
2023/12/08 09:57:52;;;;;;;;;;;;;;;;;;4996170;28;128963;-73
2023/12/08 10:00:20;;;;;;;;;;;;;;;;;;4989871;28;98981;-74
2023/12/08 10:02:46;;;;;;;;;;;;;;;;;;4990705;28;122464;-76
2023/12/08 10:05:13;;;;;;;;;;;;;;;;;;5000566;28;127710;-75
2023/12/08 10:07:39;;;;;;;;;;;;;;;;;;4989206;28;129355;-74
2023/12/08 10:10:07;;;;;;;;;;;;;;;;;;4989066;28;122922;-75
2023/12/08 10:12:34;;;;;;;;;;;;;;;;;;4989096;28;129365;-74
2023/12/08 10:15:01;;;;;;;;;;;;;;;;;;4992208;28;127830;-74
2023/12/08 10:17:27;;;;;;;;;;;;;;;;;;4989779;28;124835;-75
2023/12/08 10:19:54;;;;;;;;;;;;;;;;;;4988934;28;128144;-74
2023/12/08 10:22:21;;;;;;;;;;;;;;;;;;5008835;28;123109;-74
2023/12/08 10:24:47;;;;;;;;;;;;;;;;;;5008259;28;129944;-76
2023/12/08 10:27:13;;;;;;;;;;;;;;;;;;5007987;28;130237;-77
2023/12/08 10:29:40;;;;;;;;;;;;;;;;;;5008949;28;123708;-75
2023/12/08 10:32:06;;;;;;;;;;;;;;;;;;5008290;28;129852;-76
2023/12/08 10:34:33;;;;;;;;;;;;;;;;;;5005440;28;130209;-76
2023/12/08 10:36:59;;;;;;;;;;;;;;;;;;5008818;28;128749;-76
2023/12/08 10:39:25;;;;;;;;;;;;;;;;;;4997802;28;129398;-76
2023/12/08 10:41:52;;;;;;;;;;;;;;;;;;4990255;28;114850;-76
2023/12/08 10:44:19;;;;;;;;;;;;;;;;;;4999569;28;128452;-76
2023/12/08 10:46:46;;;;;;;;;;;;;;;;;;5000473;28;130210;-76
2023/12/08 10:49:13;;;;;;;;;;;;;;;;;;4990512;28;122750;-76
2023/12/08 10:51:39;;;;;;;;;;;;;;;;;;4992363;28;125502;-75
2023/12/08 10:54:06;;;;;;;;;;;;;;;;;;4995604;28;110436;-74
2023/12/08 10:56:33;;;;;;;;;;;;;;;;;;5000610;28;123243;-73
2023/12/08 10:58:59;;;;;;;;;;;;;;;;;;4993585;28;128576;-76
2023/12/08 11:01:26;;;;;;;;;;;;;;;;;;4992684;28;123112;-74
2023/12/08 11:03:52;;;;;;;;;;;;;;;;;;4999422;28;129055;-75
2023/12/08 11:06:25;;;;;;;;;;;;;;;;;;4987312;28;127525;-74
2023/12/08 11:08:54;;;;;;;;;;;;;;;;;;5007305;28;122382;-73
2023/12/08 11:11:20;;;;;;;;;;;;;;;;;;5007813;28;129800;-76
2023/12/08 11:13:47;;;;;;;;;;;;;;;;;;5007734;28;129375;-75
2023/12/08 11:16:13;;;;;;;;;;;;;;;;;;5007246;28;125716;-75
2023/12/08 11:18:40;;;;;;;;;;;;;;;;;;5001095;28;113299;-76
2023/12/08 11:21:09;;;;;;;;;;;;;;;;;;4994064;28;123739;-75
2023/12/08 11:23:36;;;;;;;;;;;;;;;;;;4987333;28;129247;-76
2023/12/08 11:26:02;;;;;;;;;;;;;;;;;;4994251;28;129531;-74
2023/12/08 11:28:28;;;;;;;;;;;;;;;;;;4996581;28;121907;-75
2023/12/08 11:30:57;;;;;;;;;;;;;;;;;;4995903;28;113125;-74
2023/12/08 11:33:23;;;;;;;;;;;;;;;;;;4996395;28;126534;-74
2023/12/08 11:35:51;;;;;;;;;;;;;;;;;;4993626;28;123231;-72
2023/12/08 11:38:20;;;;;;;;;;;;;;;;;;4994936;28;99238;-73
2023/12/08 11:40:46;;;;;;;;;;;;;;;;;;5001695;28;130080;-77
2023/12/08 11:43:12;;;;;;;;;;;;;;;;;;4998094;28;128375;-74
2023/12/08 11:45:39;;;;;;;;;;;;;;;;;;5002560;28;129386;-74
2023/12/08 11:48:05;;;;;;;;;;;;;;;;;;5000439;28;123036;-75
2023/12/08 11:50:32;;;;;;;;;;;;;;;;;;5001022;28;114495;-75
2023/12/08 11:52:59;;;;;;;;;;;;;;;;;;4995984;28;129447;-74
2023/12/08 11:55:25;;;;;;;;;;;;;;;;;;4997013;28;120130;-74
2023/12/08 11:57:57;;;;;;;;;;;;;;;;;;5000930;28;128835;-74
2023/12/08 12:00:23;;;;;;;;;;;;;;;;;;4993900;28;130611;-74
2023/12/08 12:02:49;;;;;;;;;;;;;;;;;;4999185;28;123029;-74
2023/12/08 12:05:16;;;;;;;;;;;;;;;;;;4986270;28;129491;-74
2023/12/08 12:07:45;;;;;;;;;;;;;;;;;;4987460;28;120830;-74
2023/12/08 12:10:11;;;;;;;;;;;;;;;;;;4987587;28;114866;-74
2023/12/08 12:12:38;;;;;;;;;;;;;;;;;;4985875;28;130117;-74
2023/12/08 12:15:04;;;;;;;;;;;;;;;;;;4992248;28;123853;-74
2023/12/08 12:17:31;;;;;;;;;;;;;;;;;;5007353;28;129143;-74
2023/12/08 12:19:57;;;;;;;;;;;;;;;;;;5006185;28;129847;-75
2023/12/08 12:22:24;;;;;;;;;;;;;;;;;;5006695;28;122660;-75
2023/12/08 12:24:50;;;;;;;;;;;;;;;;;;5010194;28;129376;-75
2023/12/08 12:27:17;;;;;;;;;;;;;;;;;;5005105;28;123784;-75
2023/12/08 12:29:43;;;;;;;;;;;;;;;;;;5006094;28;128954;-74
2023/12/08 12:32:10;;;;;;;;;;;;;;;;;;5001206;28;130349;-74
2023/12/08 12:34:37;;;;;;;;;;;;;;;;;;5004878;28;122918;-75
2023/12/08 12:37:04;;;;;;;;;;;;;;;;;;5000799;28;129231;-75
2023/12/08 12:39:31;;;;;;;;;;;;;;;;;;5002139;28;126292;-74
2023/12/08 12:41:58;;;;;;;;;;;;;;;;;;4996537;28;119843;-74
2023/12/08 12:44:24;;;;;;;;;;;;;;;;;;5000961;28;129490;-73
2023/12/08 12:46:50;;;;;;;;;;;;;;;;;;4997496;28;104903;-73
2023/12/08 12:49:17;;;;;;;;;;;;;;;;;;4993159;28;127471;-74
2023/12/08 12:51:43;;;;;;;;;;;;;;;;;;4996402;28;129377;-74
2023/12/08 12:54:10;;;;;;;;;;;;;;;;;;4997486;28;126650;-75
2023/12/08 12:56:37;;;;;;;;;;;;;;;;;;5005447;28;99487;-74
2023/12/08 12:59:03;;;;;;;;;;;;;;;;;;5003024;28;123867;-73
2023/12/08 13:01:30;;;;;;;;;;;;;;;;;;5003096;28;123000;-73
2023/12/08 13:03:56;;;;;;;;;;;;;;;;;;4992354;28;128797;-75
2023/12/08 13:06:23;;;;;;;;;;;;;;;;;;4996000;28;117746;-74
2023/12/08 13:08:49;;;;;;;;;;;;;;;;;;4994963;28;129227;-74
2023/12/08 13:11:16;;;;;;;;;;;;;;;;;;4992872;28;129636;-74
2023/12/08 13:13:42;;;;;;;;;;;;;;;;;;5003013;28;123012;-75
2023/12/08 13:16:08;;;;;;;;;;;;;;;;;;5000028;28;124704;-75
2023/12/08 13:18:35;;;;;;;;;;;;;;;;;;4997553;28;130256;-75
2023/12/08 13:21:02;;;;;;;;;;;;;;;;;;4991858;28;122921;-75
2023/12/08 13:23:28;;;;;;;;;;;;;;;;;;4993194;28;126170;-75
2023/12/08 13:25:55;;;;;;;;;;;;;;;;;;4999394;28;130251;-73
2023/12/08 13:28:21;;;;;;;;;;;;;;;;;;5013397;28;121928;-73
2023/12/08 13:30:47;;;;;;;;;;;;;;;;;;4995768;28;129255;-74
2023/12/08 13:33:14;;;;;;;;;;;;;;;;;;4993089;28;123308;-74
2023/12/08 13:35:40;;;;;;;;;;;;;;;;;;4992546;28;128930;-74
2023/12/08 13:38:07;;;;;;;;;;;;;;;;;;4989288;28;130544;-74
2023/12/08 13:40:33;;;;;;;;;;;;;;;;;;4993175;28;125703;-74
2023/12/08 13:42:59;;;;;;;;;;;;;;;;;;4995100;28;128999;-74
2023/12/08 13:45:25;;;;;;;;;;;;;;;;;;4994027;28;129281;-74
2023/12/08 13:47:52;;;;;;;;;;;;;;;;;;4997332;28;122901;-75
2023/12/08 13:50:19;;;;;;;;;;;;;;;;;;5006378;28;129188;-76
2023/12/08 13:52:45;;;;;;;;;;;;;;;;;;5000697;28;123779;-75
2023/12/08 13:55:11;;;;;;;;;;;;;;;;;;5005108;28;128049;-75
2023/12/08 13:57:38;;;;;;;;;;;;;;;;;;5009438;28;129519;-75
2023/12/08 14:00:06;;;;;;;;;;;;;;;;;;5008892;28;123481;-75
2023/12/08 14:02:32;;;;;;;;;;;;;;;;;;5005363;28;129189;-75
2023/12/08 14:04:59;;;;;;;;;;;;;;;;;;5005521;28;129230;-75
2023/12/08 14:07:25;;;;;;;;;;;;;;;;;;5008840;28;125443;-75
2023/12/08 14:09:52;;;;;;;;;;;;;;;;;;5009277;28;128966;-78
2023/12/08 14:12:18;;;;;;;;;;;;;;;;;;5011423;28;129140;-75
2023/12/08 14:14:44;;;;;;;;;;;;;;;;;;5009291;28;129143;-75
2023/12/08 14:17:11;;;;;;;;;;;;;;;;;;5008379;28;130452;-75
2023/12/08 14:19:37;;;;;;;;;;;;;;;;;;5008179;28;123077;-74
2023/12/08 14:22:04;;;;;;;;;;;;;;;;;;5009158;28;128840;-74
2023/12/08 14:24:31;;;;;;;;;;;;;;;;;;5008873;28;129366;-76
2023/12/08 14:26:58;;;;;;;;;;;;;;;;;;5007987;28;123851;-74
2023/12/08 14:29:24;;;;;;;;;;;;;;;;;;5007846;28;129071;-75
2023/12/08 14:31:50;;;;;;;;;;;;;;;;;;5009255;28;110493;-76
2023/12/08 14:34:17;;;;;;;;;;;;;;;;;;5011276;28;121297;-75
2023/12/08 14:36:45;;;;;;;;;;;;;;;;;;5008727;28;126020;-75
2023/12/08 14:39:12;;;;;;;;;;;;;;;;;;5008525;28;123413;-75
2023/12/08 14:41:38;;;;;;;;;;;;;;;;;;5008213;28;129402;-75
2023/12/08 14:44:04;;;;;;;;;;;;;;;;;;5008516;28;124381;-75
2023/12/08 14:46:30;;;;;;;;;;;;;;;;;;5008709;28;123053;-75
2023/12/08 14:48:57;;;;;;;;;;;;;;;;;;5007839;28;129311;-75
2023/12/08 14:51:23;;;;;;;;;;;;;;;;;;5007366;28;129376;-74
2023/12/08 14:53:51;;;;;;;;;;;;;;;;;;5010742;28;123242;-75
2023/12/08 14:56:18;;;;;;;;;;;;;;;;;;5007390;28;122850;-75
2023/12/08 14:58:45;;;;;;;;;;;;;;;;;;5008537;28;123291;-75
2023/12/08 15:01:12;;;;;;;;;;;;;;;;;;5007455;28;127362;-75
2023/12/08 15:03:39;;;;;;;;;;;;;;;;;;5005961;28;100546;-74
2023/12/08 15:06:05;;;;;;;;;;;;;;;;;;5000113;28;122684;-75
2023/12/08 15:08:32;;;;;;;;;;;;;;;;;;4995007;28;128978;-75
2023/12/08 15:10:58;;;;;;;;;;;;;;;;;;5000595;28;119228;-76
2023/12/08 15:13:25;;;;;;;;;;;;;;;;;;5000619;28;119407;-75
2023/12/08 15:15:51;;;;;;;;;;;;;;;;;;5000633;28;122259;-73
2023/12/08 15:18:17;;;;;;;;;;;;;;;;;;4995619;28;122951;-75
2023/12/08 15:20:49;;;;;;;;;;;;;;;;;;4997784;28;128998;-76
2023/12/08 15:23:17;;;;;;;;;;;;;;;;;;4996696;28;130106;-76
2023/12/08 15:25:44;;;;;;;;;;;;;;;;;;4997628;28;122894;-76
2023/12/08 15:28:11;;;;;;;;;;;;;;;;;;5003450;28;128785;-75
2023/12/08 15:30:38;;;;;;;;;;;;;;;;;;5002530;28;129741;-75
2023/12/08 15:33:04;;;;;;;;;;;;;;;;;;4994349;28;123061;-74
2023/12/08 15:35:30;;;;;;;;;;;;;;;;;;4999652;28;127905;-75
2023/12/08 15:37:57;;;;;;;;;;;;;;;;;;4999051;28;129905;-75
2023/12/08 15:40:23;;;;;;;;;;;;;;;;;;4999852;28;129607;-75
2023/12/08 15:42:50;;;;;;;;;;;;;;;;;;4996380;28;130418;-74
2023/12/08 15:45:16;;;;;;;;;;;;;;;;;;4997471;28;125313;-74
2023/12/08 15:47:43;;;;;;;;;;;;;;;;;;4999598;28;129853;-73
2023/12/08 15:50:09;;;;;;;;;;;;;;;;;;4996030;28;129793;-74
2023/12/08 15:52:35;;;;;;;;;;;;;;;;;;5000187;28;125833;-73
2023/12/08 15:55:02;;;;;;;;;;;;;;;;;;5000030;28;127601;-74
2023/12/08 15:57:28;;;;;;;;;;;;;;;;;;4998555;28;126878;-74
2023/12/08 15:59:55;;;;;;;;;;;;;;;;;;5001103;28;122889;-74
2023/12/08 16:02:22;;;;;;;;;;;;;;;;;;4998494;28;129256;-74
2023/12/08 16:04:48;;;;;;;;;;;;;;;;;;4993321;28;123387;-74
2023/12/08 16:07:14;;;;;;;;;;;;;;;;;;4999306;28;132209;-73
2023/12/08 16:09:41;;;;;;;;;;;;;;;;;;5000389;28;132001;-73
2023/12/08 16:12:08;;;;;;;;;;;;;;;;;;4993343;28;120204;-73
2023/12/08 16:14:34;;;;;;;;;;;;;;;;;;4992060;28;130040;-74
2023/12/08 16:17:01;;;;;;;;;;;;;;;;;;4994018;28;129652;-74
2023/12/08 16:19:28;;;;;;;;;;;;;;;;;;4993701;28;123064;-74
2023/12/08 16:21:54;;;;;;;;;;;;;;;;;;4997766;28;128680;-74
2023/12/08 16:24:21;;;;;;;;;;;;;;;;;;4993151;28;120219;-74